createdAt,value
2023-03-22T00:01:53.956Z,1.95
2023-03-22T00:04:23.196Z,1.35
2023-03-22T00:06:53.727Z,1.85
2023-03-22T00:09:22.509Z,1.58
2023-03-22T00:11:52.350Z,1.42
2023-03-22T00:14:20.288Z,1.80
2023-03-22T00:16:52.130Z,1.10
2023-03-22T00:19:25.650Z,1.20
2023-03-22T00:22:01.450Z,1.35
2023-03-22T00:24:32.850Z,1.55
2023-03-22T00:27:02.092Z,1.58
2023-03-22T00:29:31.665Z,2.33
2023-03-22T00:31:59.658Z,2.67
2023-03-22T00:34:31.980Z,2.55
2023-03-22T00:37:00.860Z,2.20
2023-03-22T00:39:29.486Z,2.38
2023-03-22T00:41:57.461Z,2.60
2023-03-22T00:44:31.736Z,2.28
2023-03-22T00:47:01.957Z,2.70
2023-03-22T00:49:32.812Z,3.25
2023-03-22T00:52:01.776Z,1.83
2023-03-22T00:54:28.807Z,2.80
2023-03-22T00:56:55.960Z,2.15
2023-03-22T00:59:26.310Z,3.20
2023-03-22T01:01:56.876Z,2.13
2023-03-22T01:04:37.883Z,2.20
2023-03-22T01:07:05.840Z,1.40
2023-03-22T01:09:33.934Z,1.85
2023-03-22T01:12:02.396Z,1.38
2023-03-22T01:14:31.884Z,2.05
2023-03-22T01:16:58.906Z,1.27
2023-03-22T01:19:27.529Z,1.17
2023-03-22T01:21:56.038Z,2.10
2023-03-22T01:24:26.482Z,1.52
2023-03-22T01:26:53.658Z,1.90
2023-03-22T01:29:26.514Z,1.40
2023-03-22T01:31:54.465Z,1.88
2023-03-22T01:34:23.058Z,2.15
2023-03-22T01:36:54.090Z,1.63
2023-03-22T01:39:22.715Z,1.92
2023-03-22T01:41:54.689Z,1.77
2023-03-22T01:44:24.097Z,1.77
2023-03-22T01:46:57.241Z,1.58
2023-03-22T01:49:33.392Z,1.80
2023-03-22T01:52:08.541Z,1.42
2023-03-22T01:54:58.659Z,1.42
2023-03-22T01:57:42.045Z,1.52
2023-03-22T02:00:16.056Z,1.88
2023-03-22T02:03:19.509Z,1.50
2023-03-22T02:05:48.975Z,1.50
2023-03-22T02:08:16.714Z,1.55
2023-03-22T02:11:03.716Z,1.45
2023-03-22T02:13:48.021Z,1.02
2023-03-22T02:16:51.687Z,1.40
2023-03-22T02:19:31.274Z,2.05
2023-03-22T02:22:24.056Z,1.50
2023-03-22T02:25:12.798Z,1.80
2023-03-22T02:27:40.770Z,1.75
2023-03-22T02:30:57.972Z,1.88
2023-03-22T02:33:30.891Z,1.80
2023-03-22T02:36:04.101Z,1.52
2023-03-22T02:38:49.132Z,1.80
2023-03-22T02:41:28.611Z,1.50
2023-03-22T02:44:08.850Z,2.38
2023-03-22T02:46:48.783Z,2.47
2023-03-22T02:49:59.128Z,2.25
2023-03-22T02:52:33.323Z,1.85
2023-03-22T02:55:24.562Z,2.53
2023-03-22T02:57:54.599Z,2.10
2023-03-22T03:00:21.671Z,2.50
2023-03-22T03:02:57.185Z,2.45
2023-03-22T03:05:31.462Z,2.75
2023-03-22T03:08:08.309Z,2.33
2023-03-22T03:10:40.806Z,2.80
2023-03-22T03:13:17.552Z,3.00
2023-03-22T03:15:53.044Z,3.20
2023-03-22T03:18:48.154Z,3.03
2023-03-22T03:21:32.645Z,2.05
2023-03-22T03:24:20.752Z,3.10
2023-03-22T03:27:00.410Z,3.15
2023-03-22T03:29:56.399Z,3.53
2023-03-22T03:32:35.481Z,3.10
2023-03-22T03:36:08.979Z,2.95
2023-03-22T03:38:50.712Z,3.38
2023-03-22T03:41:25.594Z,2.83
2023-03-22T03:43:59.958Z,2.80
2023-03-22T03:46:30.538Z,2.85
2023-03-22T03:48:58.908Z,3.28
2023-03-22T03:51:28.407Z,3.90
2023-03-22T03:53:59.788Z,2.80
2023-03-22T03:56:28.090Z,3.65
2023-03-22T03:58:56.408Z,3.78
2023-03-22T04:01:26.516Z,3.47
2023-03-22T04:04:11.254Z,3.38
2023-03-22T04:07:00.640Z,3.10
2023-03-22T04:09:38.542Z,2.95
2023-03-22T04:12:28.278Z,2.90
2023-03-22T04:15:20.273Z,2.95
2023-03-22T04:18:08.049Z,2.78
2023-03-22T04:20:35.220Z,2.50
2023-03-22T04:23:04.477Z,3.95
2023-03-22T04:25:34.071Z,3.58
2023-03-22T04:28:09.725Z,3.47
2023-03-22T04:30:39.183Z,2.67
2023-03-22T04:33:09.316Z,2.70
2023-03-22T04:36:16.255Z,2.80
2023-03-22T04:39:12.016Z,2.78
2023-03-22T04:41:42.049Z,2.30
2023-03-22T04:44:09.234Z,3.03
2023-03-22T04:46:45.916Z,3.15
2023-03-22T04:49:13.062Z,3.75
2023-03-22T04:51:41.714Z,2.83
2023-03-22T04:54:33.665Z,3.30
2023-03-22T04:57:01.557Z,3.10
2023-03-22T04:59:38.297Z,2.65
2023-03-22T05:02:05.742Z,3.03
2023-03-22T05:04:42.081Z,2.47
2023-03-22T05:07:22.438Z,3.08
2023-03-22T05:09:54.074Z,2.88
2023-03-22T05:12:21.961Z,2.88
2023-03-22T05:15:10.448Z,3.38
2023-03-22T05:17:39.714Z,3.30
2023-03-22T05:20:10.133Z,3.00
2023-03-22T05:22:42.199Z,2.92
2023-03-22T05:25:11.735Z,3.10
2023-03-22T05:27:46.198Z,2.90
2023-03-22T05:30:37.981Z,2.47
2023-03-22T05:33:22.960Z,3.10
2023-03-22T05:35:54.843Z,3.10
2023-03-22T05:38:25.850Z,3.05
2023-03-22T05:40:58.626Z,3.05
2023-03-22T05:43:32.919Z,2.40
2023-03-22T05:46:00.129Z,2.92
2023-03-22T05:48:37.890Z,2.53
2023-03-22T05:51:17.867Z,2.78
2023-03-22T05:53:56.336Z,2.47
2023-03-22T05:56:30.605Z,2.15
2023-03-22T05:59:05.970Z,3.00
2023-03-22T06:01:33.851Z,2.38
2023-03-22T06:04:30.278Z,2.30
2023-03-22T06:07:01.064Z,2.30
2023-03-22T06:09:57.356Z,2.10
2023-03-22T06:12:29.912Z,1.73
2023-03-22T06:15:04.451Z,1.83
2023-03-22T06:17:34.010Z,2.17
2023-03-22T06:20:13.259Z,1.85
2023-03-22T06:22:55.754Z,2.10
2023-03-22T06:25:32.632Z,2.05
2023-03-22T06:28:00.538Z,1.83
2023-03-22T06:30:31.806Z,1.95
2023-03-22T06:33:09.381Z,1.73
2023-03-22T06:35:44.050Z,1.77
2023-03-22T06:38:23.015Z,1.67
2023-03-22T06:40:50.053Z,1.52
2023-03-22T06:43:26.267Z,2.10
2023-03-22T06:46:01.672Z,1.67
2023-03-22T06:48:38.082Z,1.58
2023-03-22T06:51:21.320Z,1.80
2023-03-22T06:53:49.476Z,2.13
2023-03-22T06:56:18.791Z,1.45
2023-03-22T06:58:58.521Z,1.50
2023-03-22T07:01:29.121Z,1.92
2023-03-22T07:03:58.816Z,2.08
2023-03-22T07:06:26.400Z,2.15
2023-03-22T07:08:57.221Z,1.77
2023-03-22T07:11:38.176Z,2.53
2023-03-22T07:14:10.126Z,2.45
2023-03-22T07:17:02.838Z,1.27
2023-03-22T07:19:32.115Z,2.60
2023-03-22T07:22:05.532Z,2.05
2023-03-22T07:24:33.947Z,1.60
2023-03-22T07:27:08.458Z,1.83
2023-03-22T07:29:39.124Z,1.60
2023-03-22T07:32:07.498Z,1.88
2023-03-22T07:34:59.282Z,1.38
2023-03-22T07:37:29.468Z,1.80
2023-03-22T07:39:59.463Z,1.25
2023-03-22T07:42:41.098Z,1.30
2023-03-22T07:45:34.271Z,1.77
2023-03-22T07:48:22.804Z,1.25
2023-03-22T07:51:08.536Z,1.67
2023-03-22T07:53:38.490Z,1.40
2023-03-22T07:56:09.292Z,1.70
2023-03-22T07:58:39.300Z,1.77
2023-03-22T08:01:11.391Z,1.67
2023-03-22T08:04:07.002Z,1.83
2023-03-22T08:06:52.327Z,1.50
2023-03-22T08:09:22.710Z,1.45
2023-03-22T08:11:50.184Z,2.08
2023-03-22T08:14:30.608Z,1.85
2023-03-22T08:17:05.920Z,1.40
2023-03-22T08:19:34.658Z,2.20
2023-03-22T08:22:02.797Z,2.20
2023-03-22T08:24:48.065Z,1.75
2023-03-22T08:27:29.593Z,1.48
2023-03-22T08:29:58.545Z,1.60
2023-03-22T08:32:28.058Z,1.40
2023-03-22T08:34:56.916Z,1.52
2023-03-22T08:37:25.108Z,2.80
2023-03-22T08:39:52.770Z,1.10
2023-03-22T08:42:25.969Z,1.63
2023-03-22T08:44:53.035Z,1.48
2023-03-22T08:47:25.156Z,1.63
2023-03-22T08:49:56.693Z,1.73
2023-03-22T08:52:34.656Z,1.98
2023-03-22T08:55:22.632Z,1.33
2023-03-22T08:58:12.517Z,1.67
2023-03-22T09:00:56.251Z,2.00
2023-03-22T09:03:46.790Z,2.33
2023-03-22T09:06:14.994Z,1.92
2023-03-22T09:08:43.561Z,1.65
2023-03-22T09:11:16.668Z,1.95
2023-03-22T09:13:55.702Z,1.80
2023-03-22T09:16:23.767Z,2.70
2023-03-22T09:18:51.445Z,2.53
2023-03-22T09:21:22.197Z,2.08
2023-03-22T09:23:57.507Z,2.42
2023-03-22T09:26:37.397Z,2.45
2023-03-22T09:29:06.527Z,2.20
2023-03-22T09:31:34.430Z,2.38
2023-03-22T09:34:16.137Z,2.28
2023-03-22T09:36:44.220Z,2.70
2023-03-22T09:39:13.186Z,2.13
2023-03-22T09:41:52.888Z,2.97
2023-03-22T09:44:33.109Z,2.85
2023-03-22T09:47:04.328Z,2.25
2023-03-22T09:49:52.583Z,2.47
2023-03-22T09:52:20.629Z,2.63
2023-03-22T09:54:47.947Z,2.85
2023-03-22T09:57:45.147Z,2.60
2023-03-22T10:00:43.303Z,2.95
2023-03-22T10:03:27.708Z,2.40
2023-03-22T10:06:14.542Z,2.60
2023-03-22T10:09:14.769Z,2.60
2023-03-22T10:11:55.134Z,2.40
2023-03-22T10:14:27.778Z,2.58
2023-03-22T10:16:57.902Z,2.55
2023-03-22T10:19:48.038Z,2.80
2023-03-22T10:22:18.280Z,3.35
2023-03-22T10:24:49.506Z,2.95
2023-03-22T10:27:19.347Z,2.60
2023-03-22T10:30:00.872Z,2.20
2023-03-22T10:32:56.776Z,2.45
2023-03-22T10:35:24.758Z,1.83
2023-03-22T10:37:53.571Z,2.85
2023-03-22T10:40:27.630Z,2.78
2023-03-22T10:43:10.163Z,2.70
2023-03-22T10:45:40.106Z,2.70
2023-03-22T10:48:23.897Z,3.17
2023-03-22T10:51:07.713Z,2.50
2023-03-22T10:53:39.163Z,3.00
2023-03-22T10:56:13.575Z,2.65
2023-03-22T10:58:40.528Z,2.63
2023-03-22T11:01:14.128Z,2.25
2023-03-22T11:03:49.936Z,2.25
2023-03-22T11:06:18.483Z,2.55
2023-03-22T11:08:50.561Z,3.00
2023-03-22T11:11:43.269Z,1.92
2023-03-22T11:14:20.936Z,3.25
2023-03-22T11:17:09.175Z,3.25
2023-03-22T11:19:41.789Z,2.97
2023-03-22T11:22:39.674Z,3.25
2023-03-22T11:25:16.779Z,2.20
2023-03-22T11:28:05.037Z,3.10
2023-03-22T11:30:33.733Z,3.50
2023-03-22T11:33:19.248Z,2.13
2023-03-22T11:35:48.974Z,2.20
2023-03-22T11:38:38.513Z,2.88
2023-03-22T11:41:21.617Z,3.13
2023-03-22T11:43:54.183Z,3.05
2023-03-22T11:46:26.233Z,2.50
2023-03-22T11:49:00.967Z,2.83
2023-03-22T11:51:33.687Z,2.85
2023-03-22T11:54:20.782Z,2.55
2023-03-22T11:56:49.589Z,2.75
2023-03-22T11:59:46.741Z,2.60
2023-03-22T12:02:24.190Z,2.50
2023-03-22T12:05:02.130Z,2.60
2023-03-22T12:07:32.016Z,2.78
2023-03-22T12:10:06.874Z,2.10
2023-03-22T12:12:46.662Z,3.10
2023-03-22T12:15:16.970Z,2.80
2023-03-22T12:18:25.937Z,2.42
2023-03-22T12:20:56.732Z,2.20
2023-03-22T12:23:26.833Z,2.30
2023-03-22T12:26:07.669Z,2.20
2023-03-22T12:28:52.901Z,2.92
2023-03-22T12:31:24.376Z,2.45
2023-03-22T12:33:55.566Z,3.20
2023-03-22T12:36:38.355Z,3.03
2023-03-22T12:39:11.335Z,3.03
2023-03-22T12:41:42.094Z,4.22
2023-03-22T12:44:33.352Z,3.00
2023-03-22T12:47:06.517Z,2.80
2023-03-22T12:49:59.606Z,3.22
2023-03-22T12:52:45.099Z,2.67
2023-03-22T12:55:38.375Z,2.50
2023-03-22T12:58:07.748Z,2.72
2023-03-22T13:00:44.412Z,2.22
2023-03-22T13:03:18.197Z,2.92
2023-03-22T13:05:51.148Z,3.50
2023-03-22T13:08:23.018Z,2.53
2023-03-22T13:11:00.936Z,2.67
2023-03-22T13:16:11.217Z,2.55
2023-03-22T13:18:38.539Z,3.03
2023-03-22T13:21:27.122Z,3.25
2023-03-22T13:24:10.560Z,2.90
2023-03-22T13:26:39.806Z,2.35
2023-03-22T13:29:17.594Z,2.55
2023-03-22T13:34:22.120Z,3.08
2023-03-22T13:36:53.834Z,3.03
2023-03-22T13:39:26.922Z,3.40
2023-03-22T13:42:37.294Z,3.05
2023-03-22T13:45:10.036Z,2.72
2023-03-22T13:47:45.755Z,2.35
2023-03-22T13:50:27.278Z,4.00
2023-03-22T13:53:06.998Z,3.13
2023-03-22T13:55:57.030Z,2.90
2023-03-22T13:58:51.142Z,2.60
2023-03-22T14:01:33.112Z,2.45
2023-03-22T14:04:07.148Z,1.98
2023-03-22T14:06:59.760Z,2.28
2023-03-22T14:09:32.617Z,2.58
2023-03-22T14:12:11.650Z,3.35
2023-03-22T14:14:45.361Z,3.20
2023-03-22T14:17:33.462Z,2.85
2023-03-22T14:20:01.851Z,2.55
